sensor_id;sensor_type;location;lat;lon;timestamp;pressure;altitude;pressure_sealevel;temperature;humidity
28797;BME280;24974;54.444;18.560;2023-02-16T00:01:30;102050.53;;;6.95;61.78
28797;BME280;24974;54.444;18.560;2023-02-16T00:04:15;102048.16;;;6.65;62.90
28797;BME280;24974;54.444;18.560;2023-02-16T00:06:49;102046.59;;;6.69;62.33
28797;BME280;24974;54.444;18.560;2023-02-16T00:09:21;102040.47;;;6.62;61.95
28797;BME280;24974;54.444;18.560;2023-02-16T00:11:52;102040.22;;;5.85;64.09
28797;BME280;24974;54.444;18.560;2023-02-16T00:14:42;102036.75;;;7.29;60.71
28797;BME280;24974;54.444;18.560;2023-02-16T00:17:12;102032.66;;;7.53;59.38
28797;BME280;24974;54.444;18.560;2023-02-16T00:19:43;102036.97;;;7.22;60.54
28797;BME280;24974;54.444;18.560;2023-02-16T00:22:14;102033.59;;;7.15;60.41
28797;BME280;24974;54.444;18.560;2023-02-16T00:24:45;102034.97;;;6.79;61.76
28797;BME280;24974;54.444;18.560;2023-02-16T00:27:16;102026.50;;;6.59;62.16
28797;BME280;24974;54.444;18.560;2023-02-16T00:29:48;102027.75;;;6.34;63.19
28797;BME280;24974;54.444;18.560;2023-02-16T00:32:19;102024.41;;;7.05;60.90
28797;BME280;24974;54.444;18.560;2023-02-16T00:34:50;102023.44;;;6.38;62.83
28797;BME280;24974;54.444;18.560;2023-02-16T00:37:21;102031.72;;;5.81;65.00
28797;BME280;24974;54.444;18.560;2023-02-16T00:39:52;102027.16;;;6.32;63.48
28797;BME280;24974;54.444;18.560;2023-02-16T00:42:28;102028.06;;;6.38;63.33
28797;BME280;24974;54.444;18.560;2023-02-16T00:45:02;102028.50;;;6.30;62.70
28797;BME280;24974;54.444;18.560;2023-02-16T00:47:36;102022.75;;;7.25;60.74
28797;BME280;24974;54.444;18.560;2023-02-16T00:50:21;102024.22;;;6.72;61.88
28797;BME280;24974;54.444;18.560;2023-02-16T00:52:53;102020.38;;;6.35;63.03
28797;BME280;24974;54.444;18.560;2023-02-16T00:55:30;102009.38;;;5.96;64.57
28797;BME280;24974;54.444;18.560;2023-02-16T06:14:56;101758.88;;;8.07;57.49
28797;BME280;24974;54.444;18.560;2023-02-16T06:17:27;101761.31;;;7.99;58.25
28797;BME280;24974;54.444;18.560;2023-02-16T06:19:58;101755.25;;;7.87;58.50
28797;BME280;24974;54.444;18.560;2023-02-16T06:22:29;101751.84;;;6.73;61.41
28797;BME280;24974;54.444;18.560;2023-02-16T06:25:00;101760.84;;;6.47;62.86
28797;BME280;24974;54.444;18.560;2023-02-16T06:27:31;101744.09;;;7.19;61.08
28797;BME280;24974;54.444;18.560;2023-02-16T06:30:02;101752.06;;;6.93;61.49
28797;BME280;24974;54.444;18.560;2023-02-16T06:32:33;101752.47;;;7.07;61.19
28797;BME280;24974;54.444;18.560;2023-02-16T06:35:04;101749.59;;;6.65;61.72
28797;BME280;24974;54.444;18.560;2023-02-16T06:37:35;101756.91;;;6.86;60.57
28797;BME280;24974;54.444;18.560;2023-02-16T06:40:07;101754.72;;;7.15;60.47
28797;BME280;24974;54.444;18.560;2023-02-16T06:42:40;101748.78;;;7.23;60.54
28797;BME280;24974;54.444;18.560;2023-02-16T06:45:11;101744.16;;;7.66;58.99
28797;BME280;24974;54.444;18.560;2023-02-16T06:47:42;101755.47;;;7.85;58.82
28797;BME280;24974;54.444;18.560;2023-02-16T06:50:13;101744.94;;;7.62;58.99
28797;BME280;24974;54.444;18.560;2023-02-16T06:52:44;101756.28;;;6.79;61.67
28797;BME280;24974;54.444;18.560;2023-02-16T06:55:15;101755.91;;;6.43;62.94
28797;BME280;24974;54.444;18.560;2023-02-16T06:57:46;101739.63;;;7.45;59.89
28797;BME280;24974;54.444;18.560;2023-02-16T07:00:17;101743.19;;;7.08;61.28
28797;BME280;24974;54.444;18.560;2023-02-16T07:02:48;101744.47;;;6.25;63.70
28797;BME280;24974;54.444;18.560;2023-02-16T07:05:19;101744.28;;;6.80;62.15
28797;BME280;24974;54.444;18.560;2023-02-16T07:07:50;101742.97;;;6.88;61.78
28797;BME280;24974;54.444;18.560;2023-02-16T07:10:21;101727.97;;;7.60;59.59
28797;BME280;24974;54.444;18.560;2023-02-16T07:12:52;101723.47;;;7.43;59.63
28797;BME280;24974;54.444;18.560;2023-02-16T07:15:23;101724.78;;;7.36;60.65
28797;BME280;24974;54.444;18.560;2023-02-16T07:17:54;101719.41;;;7.09;60.75
28797;BME280;24974;54.444;18.560;2023-02-16T07:20:24;101718.16;;;7.64;59.61
28797;BME280;24974;54.444;18.560;2023-02-16T07:22:57;101717.44;;;7.78;58.17
28797;BME280;24974;54.444;18.560;2023-02-16T07:25:27;101718.75;;;7.76;58.12
28797;BME280;24974;54.444;18.560;2023-02-16T07:27:58;101714.22;;;7.12;60.79
28797;BME280;24974;54.444;18.560;2023-02-16T07:30:29;101726.91;;;5.77;64.55
28797;BME280;24974;54.444;18.560;2023-02-16T07:33:00;101717.97;;;6.42;62.50
28797;BME280;24974;54.444;18.560;2023-02-16T07:35:32;101715.84;;;7.08;60.69
28797;BME280;24974;54.444;18.560;2023-02-16T07:38:04;101723.19;;;7.40;59.71
28797;BME280;24974;54.444;18.560;2023-02-16T07:40:35;101723.81;;;6.56;62.40
28797;BME280;24974;54.444;18.560;2023-02-16T07:43:06;101723.38;;;6.96;61.80
28797;BME280;24974;54.444;18.560;2023-02-16T07:45:37;101730.63;;;6.53;62.61
28797;BME280;24974;54.444;18.560;2023-02-16T07:48:08;101728.38;;;7.83;59.20
28797;BME280;24974;54.444;18.560;2023-02-16T07:50:39;101747.63;;;7.19;59.74
28797;BME280;24974;54.444;18.560;2023-02-16T07:53:10;101739.41;;;7.14;60.81
28797;BME280;24974;54.444;18.560;2023-02-16T07:55:43;101747.25;;;7.80;59.65
28797;BME280;24974;54.444;18.560;2023-02-16T07:58:14;101748.84;;;7.71;59.39
28797;BME280;24974;54.444;18.560;2023-02-16T08:01:13;101743.44;;;7.44;60.17
28797;BME280;24974;54.444;18.560;2023-02-16T08:03:44;101748.66;;;7.13;61.43
28797;BME280;24974;54.444;18.560;2023-02-16T08:06:15;101744.97;;;7.29;60.18
28797;BME280;24974;54.444;18.560;2023-02-16T08:08:46;101742.28;;;7.72;59.23
28797;BME280;24974;54.444;18.560;2023-02-16T08:11:19;101739.13;;;7.53;59.42
28797;BME280;24974;54.444;18.560;2023-02-16T08:13:51;101736.00;;;7.71;58.57
28797;BME280;24974;54.444;18.560;2023-02-16T08:16:24;101751.03;;;6.99;60.24
28797;BME280;24974;54.444;18.560;2023-02-16T08:18:57;101753.78;;;7.05;60.91
28797;BME280;24974;54.444;18.560;2023-02-16T08:21:31;101764.81;;;6.83;61.36
28797;BME280;24974;54.444;18.560;2023-02-16T08:24:05;101774.31;;;6.53;62.25
28797;BME280;24974;54.444;18.560;2023-02-16T08:26:40;101746.66;;;7.31;60.15
28797;BME280;24974;54.444;18.560;2023-02-16T08:29:12;101750.88;;;6.84;61.58
28797;BME280;24974;54.444;18.560;2023-02-16T08:31:45;101767.44;;;6.99;61.03
28797;BME280;24974;54.444;18.560;2023-02-16T08:34:18;101752.75;;;7.43;59.34
28797;BME280;24974;54.444;18.560;2023-02-16T08:36:56;101753.13;;;7.56;60.00
28797;BME280;24974;54.444;18.560;2023-02-16T08:39:29;101738.50;;;8.40;57.11
28797;BME280;24974;54.444;18.560;2023-02-16T08:42:01;101724.91;;;8.96;55.88
28797;BME280;24974;54.444;18.560;2023-02-16T08:44:31;101724.00;;;8.35;57.09
28797;BME280;24974;54.444;18.560;2023-02-16T08:47:02;101727.88;;;7.87;58.54
28797;BME280;24974;54.444;18.560;2023-02-16T08:49:33;101724.09;;;9.01;55.57
28797;BME280;24974;54.444;18.560;2023-02-16T08:52:04;101721.00;;;7.42;59.36
28797;BME280;24974;54.444;18.560;2023-02-16T08:54:35;101721.31;;;7.08;61.14
28797;BME280;24974;54.444;18.560;2023-02-16T08:57:06;101720.66;;;7.70;59.70
28797;BME280;24974;54.444;18.560;2023-02-16T08:59:36;101715.00;;;7.87;58.73
28797;BME280;24974;54.444;18.560;2023-02-16T09:02:09;101713.06;;;7.82;58.46
28797;BME280;24974;54.444;18.560;2023-02-16T09:04:40;101717.19;;;8.58;57.01
28797;BME280;24974;54.444;18.560;2023-02-16T09:07:11;101714.88;;;7.67;58.46
28797;BME280;24974;54.444;18.560;2023-02-16T09:09:43;101704.81;;;8.40;57.46
28797;BME280;24974;54.444;18.560;2023-02-16T09:12:14;101714.16;;;8.44;57.32
28797;BME280;24974;54.444;18.560;2023-02-16T09:14:45;101717.47;;;7.41;59.79
28797;BME280;24974;54.444;18.560;2023-02-16T09:17:16;101716.34;;;7.05;60.47
28797;BME280;24974;54.444;18.560;2023-02-16T09:19:47;101713.50;;;8.22;57.51
28797;BME280;24974;54.444;18.560;2023-02-16T09:22:18;101707.59;;;8.55;56.49
28797;BME280;24974;54.444;18.560;2023-02-16T09:24:49;101721.38;;;8.08;57.60
28797;BME280;24974;54.444;18.560;2023-02-16T09:27:20;101708.72;;;8.69;56.65
28797;BME280;24974;54.444;18.560;2023-02-16T09:29:51;101708.34;;;9.83;53.75
28797;BME280;24974;54.444;18.560;2023-02-16T09:32:27;101698.06;;;8.83;55.30
28797;BME280;24974;54.444;18.560;2023-02-16T09:34:59;101704.34;;;9.04;55.19
28797;BME280;24974;54.444;18.560;2023-02-16T09:37:31;101709.31;;;9.07;55.62
28797;BME280;24974;54.444;18.560;2023-02-16T09:40:03;101705.00;;;8.23;56.57
28797;BME280;24974;54.444;18.560;2023-02-16T09:45:25;101687.00;;;8.37;57.17
28797;BME280;24974;54.444;18.560;2023-02-16T09:47:57;101683.22;;;8.69;56.67
28797;BME280;24974;54.444;18.560;2023-02-16T09:50:32;101687.66;;;8.90;55.97
28797;BME280;24974;54.444;18.560;2023-02-16T09:53:18;101689.13;;;7.57;59.68
28797;BME280;24974;54.444;18.560;2023-02-16T09:56:02;101684.47;;;8.26;57.73
28797;BME280;24974;54.444;18.560;2023-02-16T09:59:24;101687.72;;;8.18;58.30
28797;BME280;24974;54.444;18.560;2023-02-16T10:01:58;101678.22;;;9.58;54.23
28797;BME280;24974;54.444;18.560;2023-02-16T10:10:02;101676.06;;;8.58;56.36
28797;BME280;24974;54.444;18.560;2023-02-16T10:12:39;101685.69;;;9.06;55.19
28797;BME280;24974;54.444;18.560;2023-02-16T10:15:18;101684.22;;;9.75;54.02
28797;BME280;24974;54.444;18.560;2023-02-16T10:20:40;101685.34;;;9.64;53.62
28797;BME280;24974;54.444;18.560;2023-02-16T10:26:45;101688.69;;;9.35;54.83
28797;BME280;24974;54.444;18.560;2023-02-16T10:29:20;101688.16;;;9.13;55.02
28797;BME280;24974;54.444;18.560;2023-02-16T10:43:11;101673.25;;;11.37;49.66
28797;BME280;24974;54.444;18.560;2023-02-16T10:45:53;101681.00;;;10.27;52.30
28797;BME280;24974;54.444;18.560;2023-02-16T10:48:26;101673.06;;;9.36;55.18
28797;BME280;24974;54.444;18.560;2023-02-16T10:51:11;101661.38;;;9.90;53.74
28797;BME280;24974;54.444;18.560;2023-02-16T10:54:26;101665.94;;;10.09;52.30
28797;BME280;24974;54.444;18.560;2023-02-16T10:57:26;101662.44;;;10.53;51.46
28797;BME280;24974;54.444;18.560;2023-02-16T11:00:07;101653.78;;;12.43;48.08
28797;BME280;24974;54.444;18.560;2023-02-16T11:02:44;101649.31;;;12.84;46.26
28797;BME280;24974;54.444;18.560;2023-02-16T11:07:57;101644.34;;;12.68;46.16
28797;BME280;24974;54.444;18.560;2023-02-16T11:10:50;101651.69;;;12.72;46.17
28797;BME280;24974;54.444;18.560;2023-02-16T11:13:30;101650.28;;;12.18;47.21
28797;BME280;24974;54.444;18.560;2023-02-16T11:16:19;101640.63;;;12.21;47.22
28797;BME280;24974;54.444;18.560;2023-02-16T11:19:06;101651.25;;;11.61;48.49
28797;BME280;24974;54.444;18.560;2023-02-16T11:24:36;101648.31;;;11.76;47.68
28797;BME280;24974;54.444;18.560;2023-02-16T11:29:44;101633.03;;;12.13;47.92
28797;BME280;24974;54.444;18.560;2023-02-16T11:32:17;101629.13;;;12.70;46.35
28797;BME280;24974;54.444;18.560;2023-02-16T11:34:50;101621.97;;;13.02;45.56
28797;BME280;24974;54.444;18.560;2023-02-16T11:37:25;101617.94;;;12.43;47.62
28797;BME280;24974;54.444;18.560;2023-02-16T11:40:03;101617.03;;;13.59;45.36
28797;BME280;24974;54.444;18.560;2023-02-16T11:42:43;101614.50;;;13.02;46.64
28797;BME280;24974;54.444;18.560;2023-02-16T11:45:34;101605.38;;;14.25;43.66
28797;BME280;24974;54.444;18.560;2023-02-16T11:48:13;101603.97;;;13.64;45.19
28797;BME280;24974;54.444;18.560;2023-02-16T11:53:36;101590.78;;;14.47;43.56
28797;BME280;24974;54.444;18.560;2023-02-16T11:56:11;101588.06;;;12.50;47.33
28797;BME280;24974;54.444;18.560;2023-02-16T11:58:43;101590.78;;;13.15;46.38
28797;BME280;24974;54.444;18.560;2023-02-16T12:01:29;101587.06;;;12.78;46.91
28797;BME280;24974;54.444;18.560;2023-02-16T12:10:26;101569.19;;;13.36;46.60
28797;BME280;24974;54.444;18.560;2023-02-16T12:13:35;101563.34;;;14.37;43.95
28797;BME280;24974;54.444;18.560;2023-02-16T12:19:30;101565.69;;;15.28;41.82
28797;BME280;24974;54.444;18.560;2023-02-16T12:22:23;101561.34;;;16.71;39.20
28797;BME280;24974;54.444;18.560;2023-02-16T12:24:59;101564.53;;;15.69;40.32
28797;BME280;24974;54.444;18.560;2023-02-16T12:27:38;101547.94;;;16.47;39.00
28797;BME280;24974;54.444;18.560;2023-02-16T12:33:16;101555.09;;;17.59;36.95
28797;BME280;24974;54.444;18.560;2023-02-16T12:44:37;101555.72;;;17.94;36.54
28797;BME280;24974;54.444;18.560;2023-02-16T12:47:12;101552.78;;;17.61;37.26
28797;BME280;24974;54.444;18.560;2023-02-16T12:49:55;101553.97;;;16.75;38.86
28797;BME280;24974;54.444;18.560;2023-02-16T12:52:48;101549.13;;;16.29;39.49
28797;BME280;24974;54.444;18.560;2023-02-16T12:55:45;101556.56;;;15.76;40.48
28797;BME280;24974;54.444;18.560;2023-02-16T12:58:29;101560.03;;;15.42;41.23
28797;BME280;24974;54.444;18.560;2023-02-16T13:01:07;101553.69;;;15.42;41.68
28797;BME280;24974;54.444;18.560;2023-02-16T13:03:58;101559.22;;;15.99;40.58
28797;BME280;24974;54.444;18.560;2023-02-16T13:06:46;101543.56;;;16.37;39.89
28797;BME280;24974;54.444;18.560;2023-02-16T13:09:36;101542.72;;;16.54;39.50
28797;BME280;24974;54.444;18.560;2023-02-16T13:12:23;101547.47;;;16.02;40.62
28797;BME280;24974;54.444;18.560;2023-02-16T13:15:24;101542.72;;;16.54;39.92
28797;BME280;24974;54.444;18.560;2023-02-16T13:18:01;101545.09;;;15.12;42.24
28797;BME280;24974;54.444;18.560;2023-02-16T13:20:37;101544.00;;;14.60;42.95
28797;BME280;24974;54.444;18.560;2023-02-16T13:26:28;101545.19;;;16.30;40.14
28797;BME280;24974;54.444;18.560;2023-02-16T13:43:33;101548.25;;;16.63;39.91
28797;BME280;24974;54.444;18.560;2023-02-16T13:46:44;101548.78;;;16.21;40.48
28797;BME280;24974;54.444;18.560;2023-02-16T13:49:34;101552.31;;;15.79;41.23
28797;BME280;24974;54.444;18.560;2023-02-16T13:52:25;101548.91;;;15.64;41.21
28797;BME280;24974;54.444;18.560;2023-02-16T13:54:59;101544.63;;;15.10;42.57
28797;BME280;24974;54.444;18.560;2023-02-16T13:58:01;101555.56;;;14.39;44.37
28797;BME280;24974;54.444;18.560;2023-02-16T14:00:47;101555.31;;;13.77;45.38
28797;BME280;24974;54.444;18.560;2023-02-16T14:06:27;101543.09;;;13.56;46.17
28797;BME280;24974;54.444;18.560;2023-02-16T14:17:23;101530.03;;;13.48;46.42
28797;BME280;24974;54.444;18.560;2023-02-16T14:22:39;101535.31;;;13.58;45.93
28797;BME280;24974;54.444;18.560;2023-02-16T14:28:02;101532.78;;;13.48;46.53
28797;BME280;24974;54.444;18.560;2023-02-16T14:30:54;101535.47;;;12.79;48.00
28797;BME280;24974;54.444;18.560;2023-02-16T14:33:46;101542.88;;;13.11;46.94
28797;BME280;24974;54.444;18.560;2023-02-16T14:36:21;101541.66;;;13.31;46.83
28797;BME280;24974;54.444;18.560;2023-02-16T14:38:58;101541.47;;;13.41;46.16
28797;BME280;24974;54.444;18.560;2023-02-16T14:41:33;101541.00;;;13.06;47.22
28797;BME280;24974;54.444;18.560;2023-02-16T14:55:40;101542.53;;;12.99;47.44
28797;BME280;24974;54.444;18.560;2023-02-16T15:01:25;101535.31;;;13.16;46.69
28797;BME280;24974;54.444;18.560;2023-02-16T15:03:57;101526.22;;;12.56;47.84
28797;BME280;24974;54.444;18.560;2023-02-16T15:06:36;101535.97;;;12.16;49.30
28797;BME280;24974;54.444;18.560;2023-02-16T15:09:28;101537.63;;;11.98;50.33
28797;BME280;24974;54.444;18.560;2023-02-16T15:12:07;101540.66;;;12.15;49.64
28797;BME280;24974;54.444;18.560;2023-02-16T15:14:57;101538.97;;;12.19;49.63
28797;BME280;24974;54.444;18.560;2023-02-16T15:17:32;101536.22;;;11.58;51.37
28797;BME280;24974;54.444;18.560;2023-02-16T15:22:51;101539.78;;;11.82;50.56
28797;BME280;24974;54.444;18.560;2023-02-16T15:25:28;101541.59;;;11.25;52.06
28797;BME280;24974;54.444;18.560;2023-02-16T15:28:00;101536.13;;;11.44;52.16
28797;BME280;24974;54.444;18.560;2023-02-16T15:30:41;101529.84;;;11.14;52.55
28797;BME280;24974;54.444;18.560;2023-02-16T15:35:54;101528.78;;;11.15;53.26
28797;BME280;24974;54.444;18.560;2023-02-16T15:38:29;101539.69;;;10.97;53.34
28797;BME280;24974;54.444;18.560;2023-02-16T15:41:05;101541.91;;;10.95;53.26
28797;BME280;24974;54.444;18.560;2023-02-16T15:43:50;101531.31;;;11.07;52.74
28797;BME280;24974;54.444;18.560;2023-02-16T15:46:29;101528.47;;;11.17;52.19
28797;BME280;24974;54.444;18.560;2023-02-16T15:49:20;101536.81;;;11.31;51.95
28797;BME280;24974;54.444;18.560;2023-02-16T15:51:53;101524.81;;;11.45;51.94
28797;BME280;24974;54.444;18.560;2023-02-16T15:54:30;101525.88;;;11.49;51.61
28797;BME280;24974;54.444;18.560;2023-02-16T15:59:47;101527.00;;;11.25;51.95
28797;BME280;24974;54.444;18.560;2023-02-16T16:02:23;101522.84;;;11.27;52.17
28797;BME280;24974;54.444;18.560;2023-02-16T16:04:58;101520.25;;;11.36;51.61
28797;BME280;24974;54.444;18.560;2023-02-16T16:12:42;101524.72;;;11.32;51.79
28797;BME280;24974;54.444;18.560;2023-02-16T16:15:24;101522.31;;;11.25;51.87
28797;BME280;24974;54.444;18.560;2023-02-16T16:17:57;101523.66;;;11.28;51.89
28797;BME280;24974;54.444;18.560;2023-02-16T16:20:38;101519.09;;;11.42;51.48
28797;BME280;24974;54.444;18.560;2023-02-16T16:25:47;101515.22;;;11.43;51.45
28797;BME280;24974;54.444;18.560;2023-02-16T16:31:29;101511.69;;;11.37;51.06
28797;BME280;24974;54.444;18.560;2023-02-16T16:34:05;101516.94;;;10.91;52.56
28797;BME280;24974;54.444;18.560;2023-02-16T16:36:55;101519.94;;;11.18;51.81
28797;BME280;24974;54.444;18.560;2023-02-16T16:39:40;101525.66;;;11.22;52.04
28797;BME280;24974;54.444;18.560;2023-02-16T16:42:16;101514.25;;;11.10;51.88
28797;BME280;24974;54.444;18.560;2023-02-16T16:47:40;101517.16;;;10.95;52.31
28797;BME280;24974;54.444;18.560;2023-02-16T16:52:50;101524.00;;;11.21;51.54
28797;BME280;24974;54.444;18.560;2023-02-16T16:55:25;101521.91;;;11.37;51.36
28797;BME280;24974;54.444;18.560;2023-02-16T16:58:03;101517.22;;;11.13;51.69
28797;BME280;24974;54.444;18.560;2023-02-16T17:00:37;101515.88;;;11.11;51.99
28797;BME280;24974;54.444;18.560;2023-02-16T17:03:13;101514.47;;;11.37;51.26
28797;BME280;24974;54.444;18.560;2023-02-16T17:05:45;101517.94;;;11.24;51.53
28797;BME280;24974;54.444;18.560;2023-02-16T17:08:16;101500.31;;;11.01;52.24
28797;BME280;24974;54.444;18.560;2023-02-16T17:10:47;101509.44;;;11.20;51.82
28797;BME280;24974;54.444;18.560;2023-02-16T17:13:19;101505.09;;;11.14;51.63
28797;BME280;24974;54.444;18.560;2023-02-16T17:15:54;101511.88;;;10.74;53.05
28797;BME280;24974;54.444;18.560;2023-02-16T17:18:26;101514.25;;;10.86;52.92
28797;BME280;24974;54.444;18.560;2023-02-16T17:20:57;101511.19;;;10.29;54.05
28797;BME280;24974;54.444;18.560;2023-02-16T17:23:28;101504.28;;;11.14;52.17
28797;BME280;24974;54.444;18.560;2023-02-16T17:25:59;101509.63;;;11.05;52.29
28797;BME280;24974;54.444;18.560;2023-02-16T17:28:30;101506.13;;;11.00;52.71
28797;BME280;24974;54.444;18.560;2023-02-16T17:31:08;101500.66;;;10.95;52.31
28797;BME280;24974;54.444;18.560;2023-02-16T17:33:39;101490.78;;;10.93;52.53
28797;BME280;24974;54.444;18.560;2023-02-16T17:36:12;101496.06;;;9.93;54.77
28797;BME280;24974;54.444;18.560;2023-02-16T17:38:44;101497.66;;;10.38;54.20
28797;BME280;24974;54.444;18.560;2023-02-16T17:41:27;101495.16;;;10.71;53.10
28797;BME280;24974;54.444;18.560;2023-02-16T17:43:58;101487.56;;;10.86;52.78
28797;BME280;24974;54.444;18.560;2023-02-16T17:46:30;101491.09;;;10.34;53.93
28797;BME280;24974;54.444;18.560;2023-02-16T17:49:01;101490.94;;;10.49;53.96
28797;BME280;24974;54.444;18.560;2023-02-16T17:51:32;101483.72;;;10.82;53.22
28797;BME280;24974;54.444;18.560;2023-02-16T17:54:06;101480.59;;;11.18;52.44
28797;BME280;24974;54.444;18.560;2023-02-16T17:56:38;101476.44;;;10.97;53.32
28797;BME280;24974;54.444;18.560;2023-02-16T17:59:12;101468.66;;;10.80;53.64
28797;BME280;24974;54.444;18.560;2023-02-16T18:01:44;101466.84;;;10.94;52.96
28797;BME280;24974;54.444;18.560;2023-02-16T18:04:15;101454.31;;;11.07;52.36
28797;BME280;24974;54.444;18.560;2023-02-16T18:06:46;101461.53;;;11.03;53.27
28797;BME280;24974;54.444;18.560;2023-02-16T18:09:17;101463.84;;;11.57;51.88
28797;BME280;24974;54.444;18.560;2023-02-16T18:11:53;101467.91;;;11.41;52.61
28797;BME280;24974;54.444;18.560;2023-02-16T18:14:23;101469.84;;;11.59;51.61
28797;BME280;24974;54.444;18.560;2023-02-16T18:16:54;101475.56;;;11.44;52.14
28797;BME280;24974;54.444;18.560;2023-02-16T18:19:29;101479.22;;;11.58;51.72
28797;BME280;24974;54.444;18.560;2023-02-16T18:22:00;101478.69;;;11.37;52.11
28797;BME280;24974;54.444;18.560;2023-02-16T18:24:31;101475.63;;;11.39;52.18
28797;BME280;24974;54.444;18.560;2023-02-16T18:27:02;101476.16;;;11.41;52.39
28797;BME280;24974;54.444;18.560;2023-02-16T18:29:33;101468.69;;;11.23;52.70
28797;BME280;24974;54.444;18.560;2023-02-16T18:32:04;101477.03;;;11.36;53.12
28797;BME280;24974;54.444;18.560;2023-02-16T18:34:34;101475.84;;;11.24;52.66
28797;BME280;24974;54.444;18.560;2023-02-16T18:37:06;101477.56;;;11.38;52.88
28797;BME280;24974;54.444;18.560;2023-02-16T18:39:37;101479.16;;;11.63;52.10
28797;BME280;24974;54.444;18.560;2023-02-16T18:42:10;101490.69;;;10.75;54.69
28797;BME280;24974;54.444;18.560;2023-02-16T18:44:41;101476.25;;;11.12;54.39
28797;BME280;24974;54.444;18.560;2023-02-16T18:47:11;101471.28;;;12.13;51.82
28797;BME280;24974;54.444;18.560;2023-02-16T18:49:42;101471.59;;;11.93;51.93
28797;BME280;24974;54.444;18.560;2023-02-16T18:52:13;101467.66;;;11.80;52.10
28797;BME280;24974;54.444;18.560;2023-02-16T18:54:44;101472.97;;;12.09;51.36
28797;BME280;24974;54.444;18.560;2023-02-16T18:57:15;101475.41;;;12.11;51.07
28797;BME280;24974;54.444;18.560;2023-02-16T18:59:47;101481.03;;;11.87;51.87
28797;BME280;24974;54.444;18.560;2023-02-16T19:02:18;101475.59;;;12.00;51.64
28797;BME280;24974;54.444;18.560;2023-02-16T19:04:49;101469.19;;;12.05;51.36
28797;BME280;24974;54.444;18.560;2023-02-16T19:07:20;101464.56;;;12.19;51.57
28797;BME280;24974;54.444;18.560;2023-02-16T19:09:51;101461.25;;;12.17;51.29
28797;BME280;24974;54.444;18.560;2023-02-16T19:12:21;101467.31;;;12.00;52.05
28797;BME280;24974;54.444;18.560;2023-02-16T19:14:52;101464.00;;;12.03;52.02
28797;BME280;24974;54.444;18.560;2023-02-16T19:17:23;101465.06;;;11.46;53.54
28797;BME280;24974;54.444;18.560;2023-02-16T19:19:54;101467.91;;;11.78;53.35
28797;BME280;24974;54.444;18.560;2023-02-16T19:22:25;101468.38;;;11.86;52.58
28797;BME280;24974;54.444;18.560;2023-02-16T19:24:56;101464.34;;;11.59;53.55
28797;BME280;24974;54.444;18.560;2023-02-16T19:27:27;101472.59;;;11.40;53.82
28797;BME280;24974;54.444;18.560;2023-02-16T19:29:57;101465.25;;;11.73;53.54
28797;BME280;24974;54.444;18.560;2023-02-16T19:32:28;101467.69;;;11.94;52.92
28797;BME280;24974;54.444;18.560;2023-02-16T19:34:59;101463.56;;;11.96;53.28
28797;BME280;24974;54.444;18.560;2023-02-16T19:37:30;101470.38;;;11.99;52.75
28797;BME280;24974;54.444;18.560;2023-02-16T19:40:01;101464.88;;;12.31;52.02
28797;BME280;24974;54.444;18.560;2023-02-16T19:42:32;101466.47;;;12.51;51.68
28797;BME280;24974;54.444;18.560;2023-02-16T19:45:03;101459.06;;;12.00;52.92
28797;BME280;24974;54.444;18.560;2023-02-16T19:47:34;101460.63;;;11.31;54.69
28797;BME280;24974;54.444;18.560;2023-02-16T19:50:06;101450.66;;;11.73;54.15
28797;BME280;24974;54.444;18.560;2023-02-16T19:52:37;101440.75;;;11.72;53.66
28797;BME280;24974;54.444;18.560;2023-02-16T19:55:08;101445.88;;;11.78;53.67
28797;BME280;24974;54.444;18.560;2023-02-16T19:57:39;101441.59;;;11.72;54.40
28797;BME280;24974;54.444;18.560;2023-02-16T20:00:10;101439.25;;;11.23;55.77
28797;BME280;24974;54.444;18.560;2023-02-16T20:02:43;101450.63;;;12.11;53.10
28797;BME280;24974;54.444;18.560;2023-02-16T20:05:14;101441.78;;;10.96;56.22
28797;BME280;24974;54.444;18.560;2023-02-16T20:07:45;101445.03;;;11.21;56.06
28797;BME280;24974;54.444;18.560;2023-02-16T20:10:16;101439.75;;;10.82;57.62
28797;BME280;24974;54.444;18.560;2023-02-16T20:12:47;101437.34;;;11.00;57.28
28797;BME280;24974;54.444;18.560;2023-02-16T20:15:17;101436.31;;;11.14;57.36
28797;BME280;24974;54.444;18.560;2023-02-16T20:17:48;101425.34;;;11.52;56.26
28797;BME280;24974;54.444;18.560;2023-02-16T20:20:19;101421.78;;;11.52;56.21
28797;BME280;24974;54.444;18.560;2023-02-16T20:22:50;101418.66;;;11.20;56.94
28797;BME280;24974;54.444;18.560;2023-02-16T20:25:21;101422.47;;;11.43;56.23
28797;BME280;24974;54.444;18.560;2023-02-16T20:27:52;101423.78;;;10.84;58.48
28797;BME280;24974;54.444;18.560;2023-02-16T20:30:23;101421.09;;;11.78;55.35
28797;BME280;24974;54.444;18.560;2023-02-16T20:32:54;101420.69;;;11.34;56.36
28797;BME280;24974;54.444;18.560;2023-02-16T20:35:25;101427.03;;;11.10;57.12
28797;BME280;24974;54.444;18.560;2023-02-16T20:37:56;101424.19;;;11.39;56.77
28797;BME280;24974;54.444;18.560;2023-02-16T20:40:27;101432.84;;;10.85;58.37
28797;BME280;24974;54.444;18.560;2023-02-16T20:42:57;101432.78;;;10.90;57.85
28797;BME280;24974;54.444;18.560;2023-02-16T20:45:28;101423.19;;;11.30;57.11
28797;BME280;24974;54.444;18.560;2023-02-16T20:48:00;101415.31;;;11.61;55.96
28797;BME280;24974;54.444;18.560;2023-02-16T20:50:33;101418.75;;;10.91;57.56
28797;BME280;24974;54.444;18.560;2023-02-16T20:53:04;101425.56;;;11.18;57.32